Time;durP1;ratioP1;P1;durP2;ratioP2;P2;SDS_P1;SDS_P2;PMS_P1;PMS_P2;Temp;Humidity;BMP_temperature;BMP_pressure;BME280_temperature;BME280_humidity;BME280_pressure;Samples;Min_cycle;Max_cycle;Signal;HPM_P1;HPM_P2
2021/08/07 00:02:23;;;;;;;4.25;3.60;;;;;;;25.12;46.58;98947.22;5074609;28;20032;-69
2021/08/07 00:04:49;;;;;;;4.53;2.88;;;;;;;25.18;46.40;98945.41;5075113;28;20029;-86
2021/08/07 00:07:15;;;;;;;4.32;2.88;;;;;;;25.21;46.32;98951.31;5073863;28;20185;-72
2021/08/07 00:09:40;;;;;;;3.25;2.65;;;;;;;25.23;46.44;98946.03;5074947;28;20024;-70
2021/08/07 00:12:06;;;;;;;5.65;3.00;;;;;;;25.19;46.61;98948.97;5074625;28;20028;-85
2021/08/07 00:14:32;;;;;;;3.20;2.63;;;;;;;25.24;46.19;98947.59;5074537;28;20037;-70
2021/08/07 00:16:59;;;;;;;5.47;3.25;;;;;;;25.25;46.48;98947.16;5074594;28;20479;-85
2021/08/07 00:19:25;;;;;;;12.32;4.22;;;;;;;25.13;46.92;98948.00;5074836;28;20032;-86
2021/08/07 00:21:50;;;;;;;6.50;3.70;;;;;;;25.16;46.55;98950.69;5074912;28;20046;-71
2021/08/07 00:24:16;;;;;;;4.47;3.42;;;;;;;25.13;46.86;98945.97;5072933;28;20039;-86
2021/08/07 00:26:42;;;;;;;5.63;3.42;;;;;;;25.15;46.48;98942.72;5074452;28;20028;-69
2021/08/07 00:29:08;;;;;;;4.20;3.15;;;;;;;25.10;46.91;98943.31;5074196;28;20437;-70
2021/08/07 00:31:33;;;;;;;4.25;3.17;;;;;;;25.00;46.94;98938.88;5073960;28;20052;-86
2021/08/07 00:33:59;;;;;;;4.53;3.28;;;;;;;24.92;47.19;98939.13;5074327;28;20029;-70
2021/08/07 00:36:24;;;;;;;6.93;3.40;;;;;;;25.08;46.73;98937.41;5074594;28;20054;-85
2021/08/07 00:38:50;;;;;;;4.70;4.00;;;;;;;25.17;46.46;98937.47;5073228;28;20020;-73
2021/08/07 00:41:16;;;;;;;5.05;3.85;;;;;;;25.04;47.30;98942.34;5074062;28;20032;-86
2021/08/07 00:43:41;;;;;;;4.55;4.10;;;;;;;24.98;47.21;98941.34;5074561;28;20028;-86
2021/08/07 00:46:10;;;;;;;7.90;4.15;;;;;;;25.01;47.29;98946.00;5074442;28;20043;-81
2021/08/07 00:48:35;;;;;;;6.28;4.20;;;;;;;24.90;47.72;98946.41;5074018;28;20118;-86
2021/08/07 00:51:01;;;;;;;5.18;4.07;;;;;;;24.86;47.90;98940.94;5073971;28;20124;-69
2021/08/07 00:53:27;;;;;;;6.25;4.20;;;;;;;24.86;47.92;98943.75;5073869;28;20078;-70
2021/08/07 00:55:53;;;;;;;11.13;5.47;;;;;;;24.96;47.50;98941.03;5074254;28;20025;-70
2021/08/07 00:58:18;;;;;;;7.80;4.40;;;;;;;24.88;48.15;98938.47;5073841;28;20081;-86
2021/08/07 01:00:44;;;;;;;5.60;4.55;;;;;;;24.97;47.60;98940.56;5073969;28;20158;-70
2021/08/07 01:03:34;;;;;;;4.95;3.70;;;;;;;24.94;48.08;98940.66;5074217;28;20043;-81
2021/08/07 01:06:22;;;;;;;7.10;4.57;;;;;;;24.98;48.11;98944.91;5073863;28;20048;-79
2021/08/07 01:09:15;;;;;;;7.20;5.68;;;;;;;24.97;48.44;98945.38;5073702;28;20028;-87
2021/08/07 01:12:23;;;;;;;7.78;4.47;;;;;;;25.01;48.04;98938.41;5073596;28;20043;-70
2021/08/07 01:14:50;;;;;;;6.40;4.88;;;;;;;25.11;47.48;98936.50;5051953;28;20029;-70
2021/08/07 01:17:24;;;;;;;9.38;5.00;;;;;;;25.10;47.86;98946.13;5051758;28;20025;-87
2021/08/07 01:20:24;;;;;;;8.40;4.97;;;;;;;24.95;48.52;98943.03;5064052;28;20035;-86
2021/08/07 01:23:10;;;;;;;5.97;5.10;;;;;;;25.18;48.05;98944.63;5073763;28;20103;-86
2021/08/07 01:26:12;;;;;;;7.05;5.03;;;;;;;25.06;47.95;98942.66;5074038;28;20027;-87
2021/08/07 01:28:40;;;;;;;10.15;5.00;;;;;;;25.18;47.94;98947.41;5073812;28;20028;-81
2021/08/07 01:31:09;;;;;;;10.48;4.70;;;;;;;25.20;47.93;98944.16;5073232;28;20021;-87
2021/08/07 01:33:35;;;;;;;8.68;5.88;;;;;;;25.28;47.71;98951.81;5073325;28;20025;-70
2021/08/07 01:36:03;;;;;;;8.45;5.65;;;;;;;25.28;47.70;98945.47;5073236;28;20070;-70
2021/08/07 01:38:29;;;;;;;11.55;5.38;;;;;;;25.17;47.89;98937.47;5072286;28;20102;-70
2021/08/07 01:40:55;;;;;;;8.85;5.97;;;;;;;25.21;47.89;98935.31;5072163;28;20111;-86
2021/08/07 01:43:21;;;;;;;9.70;5.97;;;;;;;25.22;48.28;98936.09;5073477;28;20431;-82
2021/08/07 01:45:48;;;;;;;9.32;5.65;;;;;;;25.16;48.38;98939.50;5073470;28;20031;-87
2021/08/07 01:48:36;;;;;;;7.45;5.85;;;;;;;25.23;48.00;98941.22;5073379;28;20059;-86
2021/08/07 01:51:14;;;;;;;7.80;5.80;;;;;;;25.18;48.12;98939.81;5070553;28;20107;-84
2021/08/07 01:53:40;;;;;;;7.93;5.35;;;;;;;25.23;48.02;98938.44;5072321;28;20215;-86
2021/08/07 01:56:29;;;;;;;5.30;4.80;;;;;;;25.29;47.86;98931.03;5073040;28;20027;-70
2021/08/07 01:59:03;;;;;;;8.83;5.33;;;;;;;25.24;48.40;98936.41;5073613;28;20028;-87
2021/08/07 02:01:29;;;;;;;12.40;5.30;;;;;;;25.21;48.35;98937.34;5073580;28;20024;-87
2021/08/07 02:03:57;;;;;;;7.90;5.60;;;;;;;25.27;47.82;98932.72;5071894;28;20032;-70
2021/08/07 02:06:24;;;;;;;7.65;5.70;;;;;;;25.18;48.01;98933.44;5076213;28;20081;-85
2021/08/07 02:08:51;;;;;;;14.05;5.50;;;;;;;25.22;48.15;98934.09;5077158;28;20032;-78
2021/08/07 02:11:18;;;;;;;9.60;5.35;;;;;;;25.21;47.93;98935.31;5077242;28;20044;-86
2021/08/07 02:13:46;;;;;;;6.28;4.97;;;;;;;25.12;48.13;98935.25;5077158;28;20513;-86
2021/08/07 02:16:12;;;;;;;7.22;5.43;;;;;;;25.08;48.47;98934.59;5077197;28;20029;-70
2021/08/07 02:18:40;;;;;;;9.95;5.85;;;;;;;25.14;48.50;98938.38;5077259;28;20024;-70
2021/08/07 02:21:06;;;;;;;8.20;5.60;;;;;;;25.20;48.24;98925.38;5077211;28;20017;-86
2021/08/07 02:23:32;;;;;;;8.38;5.47;;;;;;;25.28;47.75;98942.66;5077011;28;20020;-70
2021/08/07 02:26:02;;;;;;;7.53;5.40;;;;;;;25.26;47.76;98936.75;5076965;28;20029;-85
2021/08/07 02:28:29;;;;;;;7.95;5.25;;;;;;;25.30;47.73;98940.97;5076810;28;20024;-71
2021/08/07 02:30:55;;;;;;;11.77;6.20;;;;;;;25.31;47.87;98939.72;5076528;28;20028;-78
2021/08/07 02:33:22;;;;;;;10.48;6.88;;;;;;;25.31;47.59;98948.09;5076489;28;20051;-70
2021/08/07 02:35:51;;;;;;;8.65;5.80;;;;;;;25.06;48.58;98945.47;5077073;28;20028;-87
2021/08/07 02:38:18;;;;;;;8.20;5.63;;;;;;;25.03;48.27;98944.38;5076891;28;20028;-87
2021/08/07 02:40:44;;;;;;;8.57;5.60;;;;;;;24.87;48.86;98942.50;5076443;28;20107;-70
2021/08/07 02:43:11;;;;;;;7.78;5.68;;;;;;;24.88;48.81;98943.28;5076648;28;20056;-81
2021/08/07 02:45:38;;;;;;;8.82;5.40;;;;;;;24.90;49.10;98941.59;5076564;28;20452;-86
2021/08/07 02:48:04;;;;;;;8.10;5.25;;;;;;;24.96;48.75;98944.59;5076828;28;20020;-69
2021/08/07 02:50:30;;;;;;;10.15;6.10;;;;;;;25.01;48.50;98941.19;5076276;28;20020;-84
2021/08/07 02:52:56;;;;;;;15.57;6.70;;;;;;;25.05;48.30;98944.69;5076628;28;20028;-86
2021/08/07 02:55:22;;;;;;;12.40;6.75;;;;;;;25.08;48.02;98934.59;5076060;28;20032;-86
2021/08/07 02:57:52;;;;;;;13.35;6.28;;;;;;;24.99;48.75;98929.69;5076302;28;20032;-70
2021/08/07 03:00:18;;;;;;;13.05;7.18;;;;;;;24.82;49.34;98937.50;5076451;28;20395;-70
2021/08/07 03:02:44;;;;;;;10.63;5.93;;;;;;;24.98;48.76;98935.75;5070659;28;20029;-86
2021/08/07 03:05:10;;;;;;;10.68;6.85;;;;;;;24.73;49.25;98937.41;5055479;28;20037;-78
2021/08/07 03:07:36;;;;;;;14.70;6.97;;;;;;;24.87;48.72;98930.56;5056387;28;20021;-86
2021/08/07 03:10:07;;;;;;;12.35;7.15;;;;;;;24.81;48.76;98927.56;5056034;28;20086;-84
2021/08/07 03:12:34;;;;;;;11.90;7.38;;;;;;;24.77;49.44;98935.28;5056076;28;20025;-86
2021/08/07 03:15:00;;;;;;;12.90;7.45;;;;;;;24.77;49.05;98928.91;5055848;28;20441;-86
2021/08/07 03:17:26;;;;;;;10.48;7.38;;;;;;;24.98;48.47;98927.38;5055266;28;20029;-85
2021/08/07 03:19:51;;;;;;;15.82;8.02;;;;;;;25.10;48.33;98921.75;5055945;28;20021;-86
2021/08/07 03:22:17;;;;;;;11.60;8.60;;;;;;;25.02;48.27;98928.03;5055958;28;20033;-70
2021/08/07 03:24:44;;;;;;;12.95;9.02;;;;;;;24.86;49.04;98927.00;5055675;28;20053;-86
2021/08/07 03:27:11;;;;;;;12.00;8.18;;;;;;;24.85;48.85;98925.41;5056121;28;20611;-76
2021/08/07 03:29:37;;;;;;;11.45;8.93;;;;;;;24.92;48.75;98927.94;5055704;28;20082;-86
2021/08/07 03:32:03;;;;;;;13.50;8.80;;;;;;;24.98;48.55;98930.16;5054376;28;20095;-71
2021/08/07 03:34:29;;;;;;;12.45;9.35;;;;;;;24.87;48.89;98922.97;5055331;28;20542;-87
2021/08/07 03:36:55;;;;;;;8.98;7.97;;;;;;;24.82;49.01;98922.75;5055305;28;20151;-70
2021/08/07 03:39:20;;;;;;;16.75;8.52;;;;;;;24.87;48.75;98924.97;5055393;28;20159;-71
2021/08/07 03:41:48;;;;;;;15.45;9.32;;;;;;;24.69;49.33;98922.78;5055303;28;20061;-86
2021/08/07 03:44:14;;;;;;;11.45;8.30;;;;;;;24.61;49.52;98922.25;5055665;28;20392;-87
2021/08/07 03:46:40;;;;;;;10.23;7.95;;;;;;;24.80;49.04;98926.00;5053997;28;20036;-71
2021/08/07 03:49:06;;;;;;;9.88;7.65;;;;;;;24.65;49.33;98924.16;5055279;28;20029;-70
2021/08/07 03:51:31;;;;;;;14.60;8.10;;;;;;;24.75;49.18;98920.97;5055415;28;20029;-70
2021/08/07 03:53:57;;;;;;;17.88;8.48;;;;;;;24.90;48.86;98924.84;5055006;28;20064;-84
2021/08/07 03:56:23;;;;;;;20.80;9.15;;;;;;;24.69;49.27;98920.00;5055281;28;20029;-70
2021/08/07 03:58:48;;;;;;;14.55;8.00;;;;;;;24.66;49.34;98926.50;5054056;28;20494;-87
2021/08/07 04:01:14;;;;;;;13.50;7.65;;;;;;;24.51;49.53;98925.44;5054835;28;20111;-87
2021/08/07 04:03:39;;;;;;;12.48;8.60;;;;;;;24.70;49.09;98923.56;5053787;28;20067;-85
2021/08/07 04:06:05;;;;;;;15.70;7.55;;;;;;;24.60;49.44;98917.13;5054979;28;20028;-82
2021/08/07 04:08:30;;;;;;;11.90;7.97;;;;;;;24.71;49.31;98923.16;5055249;28;20422;-78
2021/08/07 04:10:56;;;;;;;8.75;7.53;;;;;;;24.70;49.04;98921.56;5054506;28;20028;-86
2021/08/07 04:13:22;;;;;;;12.98;7.63;;;;;;;24.72;49.33;98921.91;5054413;28;20059;-70
2021/08/07 04:15:48;;;;;;;12.10;8.13;;;;;;;24.80;48.77;98920.41;5054496;28;20078;-70
2021/08/07 04:18:13;;;;;;;13.23;8.85;;;;;;;24.67;49.50;98927.28;5054663;28;20032;-86
2021/08/07 04:20:39;;;;;;;10.77;8.18;;;;;;;24.58;49.96;98930.78;5054615;28;20079;-87
2021/08/07 04:23:08;;;;;;;13.23;8.77;;;;;;;24.72;49.15;98927.50;5054425;28;20024;-88
2021/08/07 04:25:34;;;;;;;16.92;10.05;;;;;;;24.82;49.31;98919.97;5054665;28;20464;-69
2021/08/07 04:27:59;;;;;;;20.52;10.18;;;;;;;24.89;48.90;98928.09;5054110;28;20112;-70
2021/08/07 04:30:25;;;;;;;16.75;10.50;;;;;;;24.92;48.83;98927.94;5054668;28;20103;-69
2021/08/07 04:32:51;;;;;;;15.93;10.27;;;;;;;24.89;48.73;98922.50;5054249;28;20045;-69
2021/08/07 04:35:16;;;;;;;22.15;10.32;;;;;;;24.85;49.03;98925.41;5054016;28;20032;-69
2021/08/07 04:37:50;;;;;;;17.42;10.57;;;;;;;24.77;49.67;98929.69;5054043;28;20025;-70
2021/08/07 04:40:17;;;;;;;13.95;10.07;;;;;;;24.82;49.42;98933.91;5053993;28;20487;-69
2021/08/07 04:42:43;;;;;;;14.60;9.23;;;;;;;25.01;48.71;98926.44;5053766;28;20033;-70
2021/08/07 04:45:09;;;;;;;13.65;9.18;;;;;;;24.86;48.84;98929.78;5052635;28;20056;-70
2021/08/07 04:47:35;;;;;;;9.65;7.10;;;;;;;24.78;49.54;98928.44;5054151;28;20027;-70
2021/08/07 04:50:01;;;;;;;15.50;6.90;;;;;;;24.62;49.61;98937.78;5053964;28;20096;-69
2021/08/07 04:52:26;;;;;;;8.70;7.05;;;;;;;24.74;49.77;98927.81;5052933;28;20044;-85
2021/08/07 04:54:52;;;;;;;9.52;6.38;;;;;;;24.77;49.51;98921.31;5054050;28;20032;-85
2021/08/07 04:57:17;;;;;;;7.75;6.78;;;;;;;24.77;49.62;98926.88;5052953;28;20017;-85
2021/08/07 04:59:43;;;;;;;11.82;8.00;;;;;;;24.85;49.56;98922.59;5053709;28;20029;-70
2021/08/07 05:02:08;;;;;;;17.25;9.07;;;;;;;25.05;48.76;98930.72;5054214;28;20032;-85
2021/08/07 05:04:34;;;;;;;12.23;8.10;;;;;;;25.01;48.96;98924.44;5053889;28;20033;-70
2021/08/07 05:07:00;;;;;;;11.20;8.23;;;;;;;25.04;48.75;98933.97;5053874;28;20033;-76
2021/08/07 05:09:25;;;;;;;10.60;8.40;;;;;;;25.08;48.75;98929.00;5053838;28;20074;-69
2021/08/07 05:11:51;;;;;;;12.00;8.60;;;;;;;25.12;49.01;98935.25;5053548;28;20035;-70
2021/08/07 05:14:16;;;;;;;11.98;8.48;;;;;;;25.13;48.62;98928.44;5053457;28;20039;-82
2021/08/07 05:16:42;;;;;;;11.45;8.73;;;;;;;25.14;48.69;98935.59;5053771;28;20040;-70
2021/08/07 05:19:08;;;;;;;11.90;7.82;;;;;;;25.02;49.45;98934.41;5053563;28;20038;-84
2021/08/07 05:21:33;;;;;;;13.20;8.57;;;;;;;25.05;49.14;98941.13;5053656;28;20379;-70
2021/08/07 05:23:59;;;;;;;11.20;8.95;;;;;;;25.16;49.03;98941.50;5053696;28;20111;-87
2021/08/07 05:26:24;;;;;;;12.65;8.95;;;;;;;24.97;49.68;98937.00;5053294;28;20108;-85
2021/08/07 05:28:50;;;;;;;11.63;8.02;;;;;;;25.11;49.04;98942.88;5053484;28;20021;-70
2021/08/07 05:31:16;;;;;;;14.02;8.63;;;;;;;25.05;49.38;98944.69;5053345;28;20029;-85
2021/08/07 05:33:41;;;;;;;14.93;7.85;;;;;;;25.07;49.05;98938.63;5053119;28;20032;-70
2021/08/07 05:36:07;;;;;;;12.02;8.77;;;;;;;24.90;49.41;98947.19;5053166;28;20029;-85
2021/08/07 05:38:32;;;;;;;14.82;8.65;;;;;;;24.70;50.31;98955.06;5053477;28;20036;-86
2021/08/07 05:40:58;;;;;;;14.10;8.40;;;;;;;24.92;49.17;98943.94;5052833;28;20395;-70
2021/08/07 05:43:24;;;;;;;10.88;7.88;;;;;;;24.87;49.49;98945.31;5052984;28;20060;-70
2021/08/07 05:45:49;;;;;;;19.08;9.95;;;;;;;25.01;48.90;98948.81;5053483;28;20037;-83
2021/08/07 05:48:18;;;;;;;15.13;10.38;;;;;;;24.89;49.10;98951.22;5053258;28;20029;-70
2021/08/07 05:50:44;;;;;;;14.10;10.25;;;;;;;24.77;49.40;98949.22;5053237;28;20102;-70
2021/08/07 05:53:11;;;;;;;17.33;10.18;;;;;;;24.77;49.34;98954.81;5052993;28;20496;-83
2021/08/07 05:55:36;;;;;;;17.17;10.80;;;;;;;24.73;49.50;98954.19;5053337;28;20029;-70
2021/08/07 05:58:03;;;;;;;12.95;10.60;;;;;;;24.74;49.30;98952.16;5053230;28;20369;-69
2021/08/07 06:00:29;;;;;;;14.57;10.50;;;;;;;24.66;49.70;98956.44;5053031;28;20028;-70
2021/08/07 06:02:55;;;;;;;16.10;11.10;;;;;;;24.59;49.90;98949.09;5053136;28;20025;-70
2021/08/07 06:05:20;;;;;;;20.30;11.48;;;;;;;24.76;49.36;98942.09;5053075;28;20063;-71
2021/08/07 06:07:50;;;;;;;13.73;11.05;;;;;;;24.67;49.47;98950.41;5052970;28;20021;-69
2021/08/07 06:10:15;;;;;;;18.00;10.27;;;;;;;24.73;49.37;98956.97;5053166;28;20029;-70
2021/08/07 06:12:41;;;;;;;16.75;12.43;;;;;;;24.67;49.60;98955.19;5052765;28;20553;-71
2021/08/07 06:15:07;;;;;;;19.15;12.13;;;;;;;24.65;50.07;98952.88;5052018;28;20052;-70
2021/08/07 06:17:33;;;;;;;16.02;11.20;;;;;;;24.63;50.12;98956.09;5051641;28;20028;-70
2021/08/07 06:19:58;;;;;;;14.48;12.27;;;;;;;24.60;50.07;98956.22;5052898;28;20388;-74
2021/08/07 06:22:24;;;;;;;21.63;13.30;;;;;;;24.67;50.05;98958.78;5052782;28;20475;-70
2021/08/07 06:24:50;;;;;;;22.25;13.18;;;;;;;24.43;50.59;98952.81;5052762;28;20106;-75
2021/08/07 06:27:15;;;;;;;23.60;13.00;;;;;;;24.59;50.42;98960.25;5052718;28;20036;-85
2021/08/07 06:29:41;;;;;;;22.80;14.10;;;;;;;24.57;50.28;98959.94;5052777;28;20506;-87
2021/08/07 06:32:08;;;;;;;18.33;11.98;;;;;;;24.77;49.35;98949.22;5051587;28;20106;-85
2021/08/07 06:34:34;;;;;;;19.80;13.73;;;;;;;24.74;49.53;98952.94;5053182;28;20070;-70
2021/08/07 06:36:59;;;;;;;21.27;12.80;;;;;;;24.67;49.99;98958.78;5053323;28;20029;-85
2021/08/07 06:39:25;;;;;;;21.83;14.35;;;;;;;24.65;49.75;98961.25;5052653;28;20028;-83
2021/08/07 06:41:51;;;;;;;21.52;13.07;;;;;;;24.38;50.68;98958.97;5052678;28;20079;-69
2021/08/07 06:44:16;;;;;;;24.50;14.60;;;;;;;24.39;50.87;98960.50;5052891;28;20055;-82
2021/08/07 06:46:42;;;;;;;19.88;13.70;;;;;;;24.40;50.56;98952.91;5070750;28;20390;-87
2021/08/07 06:49:07;;;;;;;24.13;14.45;;;;;;;24.50;50.54;98960.16;5071673;28;20032;-87
2021/08/07 06:51:33;;;;;;;24.77;14.80;;;;;;;24.53;50.47;98962.06;5071491;28;20032;-69
2021/08/07 06:53:58;;;;;;;22.33;13.07;;;;;;;24.50;50.30;98965.75;5076528;28;20135;-89
2021/08/07 06:56:24;;;;;;;25.70;14.00;;;;;;;24.48;50.17;98957.81;5076606;28;20135;-71
2021/08/07 06:58:49;;;;;;;27.27;14.05;;;;;;;24.50;50.55;98960.16;5075263;28;20079;-79
2021/08/07 07:01:15;;;;;;;23.00;13.60;;;;;;;24.58;50.30;98955.91;5075446;28;20040;-71
2021/08/07 07:03:41;;;;;;;22.67;13.25;;;;;;;24.69;50.22;98961.09;5070886;28;20020;-92
2021/08/07 07:06:06;;;;;;;19.80;12.93;;;;;;;24.91;49.52;98959.91;5088103;28;20032;-88
2021/08/07 07:08:32;;;;;;;20.05;12.55;;;;;;;24.97;49.57;98956.53;5074216;28;20403;-71
2021/08/07 07:10:57;;;;;;;19.48;13.35;;;;;;;25.25;49.56;98963.94;5085641;28;20032;-88
2021/08/07 07:13:23;;;;;;;18.65;12.18;;;;;;;25.22;49.54;98962.03;5083192;28;20044;-73
2021/08/07 07:15:48;;;;;;;18.55;11.63;;;;;;;25.33;49.47;98956.84;5079919;28;20039;-75
2021/08/07 07:18:14;;;;;;;19.48;11.52;;;;;;;25.22;49.90;98962.03;5079743;28;20398;-77
2021/08/07 07:20:40;;;;;;;18.02;12.85;;;;;;;25.06;50.40;98965.03;5073390;28;20040;-75
2021/08/07 07:23:05;;;;;;;18.33;10.32;;;;;;;25.22;49.92;98962.03;5072235;28;20124;-72
2021/08/07 07:25:32;;;;;;;20.05;11.30;;;;;;;25.50;48.92;98957.41;5073467;28;20024;-75
2021/08/07 07:27:58;;;;;;;21.48;12.20;;;;;;;25.39;49.54;98966.19;5074324;28;20095;-87
2021/08/07 07:30:23;;;;;;;26.17;11.63;;;;;;;25.30;49.74;98960.53;5075576;28;20051;-88
2021/08/07 07:32:49;;;;;;;18.55;10.43;;;;;;;25.13;49.93;98953.59;5075444;28;20052;-85
2021/08/07 07:35:15;;;;;;;16.27;10.82;;;;;;;24.99;50.27;98959.66;5075949;28;20495;-85
2021/08/07 07:37:40;;;;;;;17.80;10.50;;;;;;;25.18;49.93;98966.97;5076071;28;20116;-72
2021/08/07 07:40:08;;;;;;;15.52;10.60;;;;;;;24.99;50.23;98968.81;5074295;28;20028;-87
2021/08/07 07:42:34;;;;;;;19.27;10.50;;;;;;;25.20;49.48;98972.88;5075418;28;20035;-71
2021/08/07 07:44:59;;;;;;;15.73;9.52;;;;;;;25.32;49.50;98963.66;5075599;28;20475;-83
2021/08/07 07:47:25;;;;;;;17.42;10.50;;;;;;;25.22;49.58;98967.63;5075445;28;20063;-87
2021/08/07 07:49:50;;;;;;;20.25;9.32;;;;;;;25.43;49.11;98969.63;5075675;28;20387;-78
2021/08/07 07:52:16;;;;;;;16.52;9.45;;;;;;;25.81;48.39;98967.84;5075261;28;20024;-71
2021/08/07 07:54:42;;;;;;;13.73;7.72;;;;;;;25.26;49.58;98964.72;5073902;28;20032;-86
2021/08/07 07:57:07;;;;;;;26.75;9.40;;;;;;;25.44;49.04;98968.38;5075298;28;20021;-86
2021/08/07 07:59:33;;;;;;;13.48;7.90;;;;;;;25.58;48.19;98958.69;5075209;28;20043;-72
2021/08/07 08:02:02;;;;;;;13.48;7.50;;;;;;;25.71;48.00;98956.63;5074992;28;20025;-87
2021/08/07 08:04:29;;;;;;;15.60;7.65;;;;;;;25.79;47.94;98959.13;5074521;28;20050;-73
2021/08/07 08:06:56;;;;;;;10.50;7.57;;;;;;;26.11;47.05;98963.44;5075153;28;20425;-71
2021/08/07 08:09:21;;;;;;;12.50;6.90;;;;;;;26.40;46.87;98947.06;5074843;28;20033;-72
2021/08/07 08:11:48;;;;;;;15.02;7.32;;;;;;;26.25;47.12;98954.47;5075329;28;20020;-84
2021/08/07 08:14:13;;;;;;;12.07;7.25;;;;;;;26.47;46.65;98946.00;5074997;28;20036;-79
2021/08/07 08:16:39;;;;;;;11.32;7.28;;;;;;;26.40;46.59;98949.88;5074763;28;20120;-89
2021/08/07 08:19:05;;;;;;;11.27;6.45;;;;;;;26.13;47.38;98946.97;5073251;28;20060;-78
2021/08/07 08:21:31;;;;;;;13.38;6.55;;;;;;;26.28;47.39;98945.13;5074737;28;20485;-87
2021/08/07 08:23:57;;;;;;;9.20;5.10;;;;;;;26.31;47.41;98949.06;5071364;28;20033;-79
2021/08/07 08:26:23;;;;;;;6.70;4.93;;;;;;;26.46;46.32;98950.81;5072754;28;20029;-79
2021/08/07 08:28:48;;;;;;;8.82;5.20;;;;;;;26.65;45.95;98936.81;5073821;28;20029;-88
2021/08/07 08:31:14;;;;;;;10.23;5.38;;;;;;;26.63;44.76;98945.69;5072447;28;20052;-81
2021/08/07 08:33:39;;;;;;;9.13;5.25;;;;;;;26.97;44.72;98941.03;5106093;28;20117;-79
2021/08/07 08:36:05;;;;;;;8.63;4.60;;;;;;;26.45;45.61;98935.25;5071760;28;20029;-79
2021/08/07 08:38:31;;;;;;;6.38;5.07;;;;;;;26.52;45.15;98940.53;5071771;28;20397;-80
2021/08/07 08:41:00;;;;;;;8.02;4.63;;;;;;;26.61;44.96;98939.78;5073333;28;20028;-90
2021/08/07 08:43:27;;;;;;;26.80;5.70;;;;;;;26.55;45.60;98944.44;5073406;28;20037;-88
2021/08/07 08:45:52;;;;;;;7.70;4.38;;;;;;;26.52;45.37;98943.34;5073175;28;20024;-86
2021/08/07 08:48:18;;;;;;;7.60;4.03;;;;;;;26.37;45.22;98939.56;5072148;28;20394;-78
2021/08/07 08:50:46;;;;;;;6.55;3.80;;;;;;;26.49;44.93;98938.69;5072792;28;20024;-78
2021/08/07 08:53:12;;;;;;;8.15;4.65;;;;;;;26.51;44.91;98936.19;5073800;28;20028;-78
2021/08/07 08:55:38;;;;;;;8.35;3.97;;;;;;;26.58;44.29;98942.72;5073812;28;20032;-80
2021/08/07 08:58:04;;;;;;;6.22;3.65;;;;;;;26.59;44.36;98938.69;5074319;28;20089;-89
2021/08/07 09:00:30;;;;;;;4.78;2.28;;;;;;;25.77;45.54;98934.41;5072589;28;20052;-79
2021/08/07 09:02:56;;;;;;;6.10;2.97;;;;;;;25.97;44.57;98940.38;5072831;28;20028;-78
2021/08/07 09:05:22;;;;;;;6.78;3.58;;;;;;;25.54;45.62;98934.88;5073871;28;20035;-80
2021/08/07 09:07:48;;;;;;;5.60;3.13;;;;;;;25.38;45.91;98939.44;5073353;28;20033;-79
2021/08/07 09:10:15;;;;;;;6.63;3.60;;;;;;;25.27;46.58;98953.06;5072356;28;20024;-79
2021/08/07 09:12:43;;;;;;;7.60;3.08;;;;;;;25.58;45.86;98938.31;5073611;28;20051;-80
2021/08/07 09:15:26;;;;;;;6.05;3.47;;;;;;;25.44;46.73;98939.66;5071799;28;20067;-87
2021/08/07 09:18:12;;;;;;;6.55;3.38;;;;;;;25.25;47.28;98926.81;5072394;28;20054;-80
2021/08/07 09:20:40;;;;;;;5.85;2.92;;;;;;;25.27;47.08;98930.72;5073649;28;20391;-81
2021/08/07 09:23:07;;;;;;;6.10;3.20;;;;;;;25.64;46.48;98914.91;5073627;28;20096;-79
2021/08/07 09:25:41;;;;;;;5.68;2.92;;;;;;;25.79;46.48;98925.56;5072717;28;20033;-79
2021/08/07 09:28:08;;;;;;;7.10;3.15;;;;;;;25.80;46.66;98924.31;5072353;28;20111;-79
2021/08/07 09:30:39;;;;;;;6.63;3.25;;;;;;;26.02;46.28;98924.25;5073751;28;20035;-79
2021/08/07 09:33:09;;;;;;;6.32;3.25;;;;;;;25.34;48.23;98924.84;5072538;28;20048;-79
2021/08/07 09:35:41;;;;;;;5.18;2.80;;;;;;;25.56;48.04;98921.25;5072420;28;20041;-78
2021/08/07 09:38:19;;;;;;;4.85;2.85;;;;;;;25.64;47.37;98917.69;5072096;28;20445;-88
2021/08/07 09:40:58;;;;;;;6.65;2.60;;;;;;;25.49;47.93;98913.13;5073354;28;20035;-78
2021/08/07 09:43:30;;;;;;;6.23;2.97;;;;;;;25.46;47.78;98926.75;5073158;28;20391;-80
2021/08/07 09:46:00;;;;;;;8.30;3.08;;;;;;;25.42;47.92;98914.94;5072183;28;20124;-89
2021/08/07 09:48:39;;;;;;;4.55;2.42;;;;;;;25.28;48.29;98943.44;5073110;28;20028;-79
2021/08/07 09:51:22;;;;;;;3.80;2.53;;;;;;;25.10;48.69;98912.59;5073287;28;20051;-89
2021/08/07 09:54:08;;;;;;;4.88;2.38;;;;;;;24.87;48.90;98914.56;5071986;28;20288;-87
2021/08/07 09:56:40;;;;;;;3.75;2.03;;;;;;;25.00;48.44;98925.66;5071756;28;20158;-79
2021/08/07 09:59:09;;;;;;;4.03;2.22;;;;;;;24.59;49.53;98910.00;5072787;28;20395;-87
2021/08/07 10:01:35;;;;;;;5.40;2.67;;;;;;;24.98;48.94;98921.78;5071458;28;20391;-78
2021/08/07 10:04:05;;;;;;;5.93;3.00;;;;;;;24.58;49.88;98909.22;5073019;28;20028;-79
2021/08/07 10:06:31;;;;;;;3.95;2.40;;;;;;;24.88;49.10;98920.94;5073063;28;20021;-79
2021/08/07 10:08:57;;;;;;;6.63;2.42;;;;;;;25.01;48.75;98924.44;5071657;28;20069;-79
2021/08/07 10:11:26;;;;;;;3.38;2.40;;;;;;;25.08;49.05;98918.63;5071707;28;20024;-79
2021/08/07 10:13:53;;;;;;;4.50;2.00;;;;;;;25.14;49.00;98927.97;5071899;28;20556;-80
2021/08/07 10:16:19;;;;;;;3.40;2.20;;;;;;;24.79;49.84;98909.72;5071618;28;20021;-90
2021/08/07 10:18:45;;;;;;;4.45;1.92;;;;;;;25.30;48.51;98923.41;5072810;28;20104;-78
2021/08/07 10:21:12;;;;;;;2.67;1.58;;;;;;;25.30;48.59;98915.03;5072872;28;20028;-78
2021/08/07 10:23:38;;;;;;;2.88;1.80;;;;;;;24.96;49.43;98922.25;5073120;28;20384;-89
2021/08/07 10:26:06;;;;;;;4.18;2.03;;;;;;;24.77;49.23;98921.31;5072667;28;20064;-79
2021/08/07 10:28:34;;;;;;;3.63;2.35;;;;;;;24.79;49.43;98930.03;5076933;28;20020;-86
2021/08/07 10:31:02;;;;;;;3.53;2.17;;;;;;;24.79;49.55;98921.66;5076564;28;20078;-83
2021/08/07 10:33:29;;;;;;;2.47;1.90;;;;;;;24.41;50.59;98929.34;5074811;28;20052;-88
2021/08/07 10:35:55;;;;;;;2.95;1.77;;;;;;;24.00;51.62;98928.28;5075364;28;20036;-80
2021/08/07 10:38:21;;;;;;;5.43;2.92;;;;;;;24.47;50.04;98927.56;5076374;28;20037;-80
2021/08/07 10:40:48;;;;;;;6.22;2.53;;;;;;;24.72;49.19;98930.28;5077087;28;20040;-85
2021/08/07 10:43:17;;;;;;;8.48;2.70;;;;;;;24.69;49.39;98928.38;5075325;28;20025;-79
2021/08/07 10:45:43;;;;;;;4.47;2.20;;;;;;;24.86;49.14;98934.56;5076460;28;20032;-80
2021/08/07 10:48:39;;;;;;;5.82;2.85;;;;;;;24.86;49.17;98928.97;5075142;28;20032;-89
2021/08/07 10:51:35;;;;;;;7.07;2.65;;;;;;;24.78;49.40;98927.66;5075949;28;20040;-79
2021/08/07 10:54:12;;;;;;;5.45;2.60;;;;;;;24.97;49.21;98928.59;5073890;28;20036;-85
2021/08/07 10:56:43;;;;;;;6.05;2.33;;;;;;;24.92;48.84;98927.16;5076273;28;20028;-79
2021/08/07 10:59:11;;;;;;;3.08;1.90;;;;;;;24.72;49.39;98924.69;5074686;28;20312;-79
2021/08/07 11:01:38;;;;;;;3.13;1.77;;;;;;;24.88;49.24;98934.91;5075957;28;20063;-79
2021/08/07 11:04:08;;;;;;;5.47;2.30;;;;;;;24.77;49.28;98929.69;5076066;28;20624;-79
2021/08/07 11:06:43;;;;;;;3.70;2.22;;;;;;;24.65;49.62;98929.75;5074612;28;20064;-89
2021/08/07 11:09:14;;;;;;;4.68;2.20;;;;;;;24.67;49.60;98930.84;5074495;28;20029;-78
2021/08/07 11:11:41;;;;;;;5.13;2.47;;;;;;;24.71;49.41;98928.72;5074846;28;20036;-81
2021/08/07 11:14:21;;;;;;;7.85;2.97;;;;;;;24.35;50.69;98927.16;5074569;28;20035;-78
2021/08/07 11:17:02;;;;;;;8.10;3.28;;;;;;;24.80;50.06;98925.22;5074663;28;20475;-79
2021/08/07 11:19:48;;;;;;;3.65;2.55;;;;;;;24.09;52.17;98933.97;5075615;28;20062;-89
2021/08/07 11:22:32;;;;;;;6.43;2.47;;;;;;;24.13;51.71;98931.06;5074709;28;20454;-79
2021/08/07 11:25:17;;;;;;;9.43;2.92;;;;;;;24.50;50.84;98933.03;5074359;28;20051;-88
2021/08/07 11:30:20;;;;;;;7.43;2.78;;;;;;;24.30;51.51;98941.63;5075579;28;20033;-79
2021/08/07 11:32:57;;;;;;;9.75;2.63;;;;;;;23.91;52.76;98947.72;5075271;28;20041;-80
2021/08/07 11:35:38;;;;;;;7.75;2.95;;;;;;;23.96;52.00;98942.38;5075315;28;20435;-78